createdAt,value
2018-06-15T00:00:52.278Z,1002.50
2018-06-15T00:01:52.263Z,1002.53
2018-06-15T00:02:52.246Z,1002.50
2018-06-15T00:03:52.227Z,1002.48
2018-06-15T00:04:52.212Z,1002.52
2018-06-15T00:05:52.193Z,1002.53
2018-06-15T00:06:52.176Z,1002.47
2018-06-15T00:07:52.166Z,1002.50
2018-06-15T00:08:52.140Z,1002.49
2018-06-15T00:09:52.126Z,1002.49
2018-06-15T00:10:52.106Z,1002.50
2018-06-15T00:11:52.089Z,1002.50
2018-06-15T00:12:52.071Z,1002.50
2018-06-15T00:13:52.054Z,1002.47
2018-06-15T00:14:52.040Z,1002.46
2018-06-15T00:15:52.021Z,1002.47
2018-06-15T00:16:52.003Z,1002.47
2018-06-15T00:17:51.986Z,1002.44
2018-06-15T00:18:51.968Z,1002.45
2018-06-15T00:19:51.949Z,1002.46
2018-06-15T00:20:51.934Z,1002.48
2018-06-15T00:21:51.917Z,1002.44
2018-06-15T00:22:51.901Z,1002.46
2018-06-15T00:23:51.878Z,1002.47
2018-06-15T00:24:51.867Z,1002.44
2018-06-15T00:25:51.849Z,1002.46
2018-06-15T00:26:51.830Z,1002.44
2018-06-15T00:27:51.813Z,1002.44
2018-06-15T00:28:51.796Z,1002.47
2018-06-15T00:29:51.781Z,1002.41
2018-06-15T00:30:51.760Z,1002.46
2018-06-15T00:31:51.748Z,1002.48
2018-06-15T00:32:51.734Z,1002.46
2018-06-15T00:33:51.710Z,1002.47
2018-06-15T00:34:51.693Z,1002.50
2018-06-15T00:35:51.676Z,1002.49
2018-06-15T00:36:51.658Z,1002.51
2018-06-15T00:37:51.640Z,1002.50
2018-06-15T00:38:51.624Z,1002.48
2018-06-15T00:39:51.606Z,1002.52
2018-06-15T00:40:51.590Z,1002.47
2018-06-15T00:41:51.573Z,1002.48
2018-06-15T00:42:51.553Z,1002.51
2018-06-15T00:43:51.538Z,1002.50
2018-06-15T00:44:51.524Z,1002.51
2018-06-15T00:45:51.502Z,1002.48
2018-06-15T00:46:51.485Z,1002.48
2018-06-15T00:47:51.468Z,1002.48
2018-06-15T00:48:51.488Z,1002.49
2018-06-15T00:49:51.434Z,1002.50
2018-06-15T00:50:51.415Z,1002.48
2018-06-15T00:51:51.398Z,1002.45
2018-06-15T00:52:51.385Z,1002.43
2018-06-15T00:53:51.367Z,1002.44
2018-06-15T00:54:51.346Z,1002.43
2018-06-15T00:55:51.330Z,1002.39
2018-06-15T00:56:51.312Z,1002.42
2018-06-15T00:57:51.294Z,1002.35
2018-06-15T00:58:51.277Z,1002.36
2018-06-15T00:59:51.258Z,1002.40
2018-06-15T01:00:51.248Z,1002.32
2018-06-15T01:01:51.227Z,1002.35
2018-06-15T01:02:51.207Z,1002.37
2018-06-15T01:03:51.191Z,1002.34
2018-06-15T01:04:51.175Z,1002.36
2018-06-15T01:05:51.157Z,1002.37
2018-06-15T01:06:51.139Z,1002.35
2018-06-15T01:07:51.124Z,1002.38
2018-06-15T01:08:51.110Z,1002.37
2018-06-15T01:09:51.088Z,1002.38
2018-06-15T01:10:51.073Z,1002.35
2018-06-15T01:11:51.053Z,1002.34
2018-06-15T01:12:51.035Z,1002.33
2018-06-15T01:13:51.016Z,1002.30
2018-06-15T01:14:51.000Z,1002.30
2018-06-15T01:15:50.983Z,1002.28
2018-06-15T01:16:50.965Z,1002.30
2018-06-15T01:17:50.949Z,1002.29
2018-06-15T01:18:50.930Z,1002.31
2018-06-15T01:19:50.916Z,1002.27
2018-06-15T01:20:50.895Z,1002.28
2018-06-15T01:21:50.880Z,1002.28
2018-06-15T01:22:50.860Z,1002.29
2018-06-15T01:23:50.845Z,1002.26
2018-06-15T01:24:50.829Z,1002.29
2018-06-15T01:25:50.809Z,1002.27
2018-06-15T01:26:50.796Z,1002.22
2018-06-15T01:27:50.780Z,1002.21
2018-06-15T01:28:50.757Z,1002.23
2018-06-15T01:29:50.740Z,1002.24
2018-06-15T01:30:50.833Z,1002.22
2018-06-15T01:31:50.707Z,1002.27
2018-06-15T01:32:50.690Z,1002.27
2018-06-15T01:33:50.673Z,1002.26
2018-06-15T01:34:50.653Z,1002.22
2018-06-15T01:35:50.634Z,1002.23
2018-06-15T01:36:50.618Z,1002.24
2018-06-15T01:37:50.602Z,1002.27
2018-06-15T01:38:50.583Z,1002.23
2018-06-15T01:39:50.569Z,1002.23
2018-06-15T01:40:50.551Z,1002.25
2018-06-15T01:41:50.533Z,1002.21
2018-06-15T01:42:50.516Z,1002.20
2018-06-15T01:43:50.495Z,1002.22
2018-06-15T01:44:50.482Z,1002.20
2018-06-15T01:45:56.986Z,1002.20
2018-06-15T01:46:50.444Z,1002.21
2018-06-15T01:47:50.427Z,1002.18
2018-06-15T01:48:50.410Z,1002.19
2018-06-15T01:49:50.393Z,1002.20
2018-06-15T01:50:50.376Z,1002.16
2018-06-15T01:51:50.359Z,1002.15
2018-06-15T01:52:50.348Z,1002.16
2018-06-15T01:53:50.322Z,1002.21
2018-06-15T01:54:50.306Z,1002.19
2018-06-15T01:55:50.289Z,1002.18
2018-06-15T01:56:50.271Z,1002.21
2018-06-15T01:57:50.255Z,1002.18
2018-06-15T01:58:50.235Z,1002.14
2018-06-15T01:59:50.217Z,1002.14
2018-06-15T02:00:50.203Z,1002.16
2018-06-15T02:01:50.183Z,1002.13
2018-06-15T02:02:50.167Z,1002.12
2018-06-15T02:03:50.147Z,1002.10
2018-06-15T02:04:50.131Z,1002.09
2018-06-15T02:05:50.114Z,1002.06
2018-06-15T02:06:50.097Z,1002.08
2018-06-15T02:07:50.131Z,1002.09
2018-06-15T02:08:50.071Z,1002.06
2018-06-15T02:09:50.061Z,1002.04
2018-06-15T02:10:50.030Z,1002.06
2018-06-15T02:11:50.016Z,1002.07
2018-06-15T02:12:49.992Z,1002.06
2018-06-15T02:13:49.975Z,1002.07
2018-06-15T02:14:49.957Z,1002.11
2018-06-15T02:15:49.940Z,1002.11
2018-06-15T02:16:49.926Z,1002.12
2018-06-15T02:17:49.904Z,1002.10
2018-06-15T02:18:49.887Z,1002.11
2018-06-15T02:19:49.869Z,1002.11
2018-06-15T02:20:49.852Z,1002.11
2018-06-15T02:21:49.839Z,1002.11
2018-06-15T02:22:49.817Z,1002.10
2018-06-15T02:23:49.801Z,1002.08
2018-06-15T02:24:49.784Z,1002.16
2018-06-15T02:25:49.766Z,1002.16
2018-06-15T02:26:49.749Z,1002.17
2018-06-15T02:27:49.732Z,1002.17
2018-06-15T02:28:49.719Z,1002.11
2018-06-15T02:29:49.696Z,1002.11
2018-06-15T02:30:49.686Z,1002.14
2018-06-15T02:31:49.663Z,1002.09
2018-06-15T02:32:49.643Z,1002.13
2018-06-15T02:33:49.625Z,1002.11
2018-06-15T02:34:49.608Z,1002.10
2018-06-15T02:35:49.593Z,1002.08
2018-06-15T02:36:49.573Z,1002.03
2018-06-15T02:37:49.557Z,1002.06
2018-06-15T02:38:49.542Z,1002.11
2018-06-15T02:39:49.525Z,1002.07
2018-06-15T02:40:49.504Z,1002.09
2018-06-15T02:41:49.486Z,1002.08
2018-06-15T02:42:49.467Z,1002.07
2018-06-15T02:43:49.451Z,1002.10
2018-06-15T02:44:49.434Z,1002.13
2018-06-15T02:45:49.419Z,1002.11
2018-06-15T02:46:49.398Z,1002.13
2018-06-15T02:47:49.387Z,1002.14
2018-06-15T02:48:49.365Z,1002.16
2018-06-15T02:49:49.346Z,1002.16
2018-06-15T02:50:49.327Z,1002.20
2018-06-15T02:51:49.310Z,1002.15
2018-06-15T02:52:49.295Z,1002.19
2018-06-15T02:53:49.276Z,1002.16
2018-06-15T02:54:49.258Z,1002.15
2018-06-15T02:55:49.242Z,1002.17
2018-06-15T02:56:49.224Z,1002.18
2018-06-15T02:57:49.206Z,1002.17
2018-06-15T02:58:49.187Z,1002.15
2018-06-15T02:59:49.171Z,1002.21
2018-06-15T03:00:49.156Z,1002.19
2018-06-15T03:01:49.135Z,1002.20
2018-06-15T03:02:49.119Z,1002.19
2018-06-15T03:03:49.101Z,1002.22
2018-06-15T03:04:49.085Z,1002.24
2018-06-15T03:05:49.066Z,1002.27
2018-06-15T03:06:49.046Z,1002.28
2018-06-15T03:07:49.032Z,1002.24
2018-06-15T03:08:49.012Z,1002.28
2018-06-15T03:09:48.996Z,1002.27
2018-06-15T03:10:48.972Z,1002.25
2018-06-15T03:11:48.960Z,1002.26
2018-06-15T03:12:48.953Z,1002.21
2018-06-15T03:13:48.930Z,1002.26
2018-06-15T03:14:48.908Z,1002.26
2018-06-15T03:15:48.889Z,1002.25
2018-06-15T03:16:48.875Z,1002.29
2018-06-15T03:17:48.855Z,1002.31
2018-06-15T03:18:48.837Z,1002.35
2018-06-15T03:19:48.819Z,1002.36
2018-06-15T03:20:48.802Z,1002.39
2018-06-15T03:21:48.790Z,1002.36
2018-06-15T03:22:48.768Z,1002.38
2018-06-15T03:23:48.748Z,1002.37
2018-06-15T03:24:48.733Z,1002.36
2018-06-15T03:25:48.717Z,1002.36
2018-06-15T03:26:48.697Z,1002.36
2018-06-15T03:27:48.680Z,1002.41
2018-06-15T03:28:48.662Z,1002.41
2018-06-15T03:29:48.644Z,1002.39
2018-06-15T03:30:48.628Z,1002.42
2018-06-15T03:31:48.613Z,1002.36
2018-06-15T03:32:48.592Z,1002.42
2018-06-15T03:33:48.575Z,1002.40
2018-06-15T03:34:48.557Z,1002.39
2018-06-15T03:35:48.541Z,1002.38
2018-06-15T03:36:48.522Z,1002.38
2018-06-15T03:37:48.505Z,1002.38
2018-06-15T03:38:48.487Z,1002.37
2018-06-15T03:39:48.470Z,1002.43
2018-06-15T03:40:48.453Z,1002.43
2018-06-15T03:41:48.444Z,1002.42
2018-06-15T03:42:48.418Z,1002.37
2018-06-15T03:43:48.400Z,1002.38
2018-06-15T03:44:48.384Z,1002.40
2018-06-15T03:45:48.366Z,1002.38
2018-06-15T03:46:48.347Z,1002.38
2018-06-15T03:47:48.329Z,1002.44
2018-06-15T03:48:48.314Z,1002.45
2018-06-15T03:49:48.296Z,1002.45
2018-06-15T03:50:48.289Z,1002.44
2018-06-15T03:51:48.263Z,1002.47
2018-06-15T03:52:48.244Z,1002.47
2018-06-15T03:53:48.227Z,1002.46
2018-06-15T03:54:48.213Z,1002.49
2018-06-15T03:55:48.192Z,1002.48
2018-06-15T03:56:48.173Z,1002.49
2018-06-15T03:57:48.157Z,1002.54
2018-06-15T03:58:48.187Z,1002.49
2018-06-15T03:59:48.124Z,1002.51
2018-06-15T04:00:48.104Z,1002.49
2018-06-15T04:01:48.088Z,1002.50
2018-06-15T04:02:48.069Z,1002.50
2018-06-15T04:03:48.055Z,1002.53
2018-06-15T04:04:48.040Z,1002.56
2018-06-15T04:05:48.018Z,1002.53
2018-06-15T04:06:48.002Z,1002.53
2018-06-15T04:07:47.984Z,1002.56
2018-06-15T04:08:47.965Z,1002.53
2018-06-15T04:09:47.950Z,1002.56
2018-06-15T04:10:47.934Z,1002.58
2018-06-15T04:11:47.914Z,1002.58
2018-06-15T04:12:47.895Z,1002.57
2018-06-15T04:13:47.880Z,1002.55
2018-06-15T04:14:47.862Z,1002.57
2018-06-15T04:15:47.844Z,1002.55
2018-06-15T04:16:47.829Z,1002.53
2018-06-15T04:17:47.810Z,1002.55
2018-06-15T04:18:47.793Z,1002.51
2018-06-15T04:19:47.811Z,1002.54
2018-06-15T04:20:47.757Z,1002.60
2018-06-15T04:21:47.744Z,1002.58
2018-06-15T04:22:47.722Z,1002.61
2018-06-15T04:23:47.703Z,1002.62
2018-06-15T04:24:47.687Z,1002.63
2018-06-15T04:25:47.671Z,1002.64
2018-06-15T04:26:47.648Z,1002.64
2018-06-15T04:27:47.635Z,1002.67
2018-06-15T04:28:47.620Z,1002.70
2018-06-15T04:29:47.601Z,1002.72
2018-06-15T04:30:47.585Z,1002.75
2018-06-15T04:31:47.566Z,1002.73
2018-06-15T04:32:47.548Z,1002.78
2018-06-15T04:33:47.532Z,1002.76
2018-06-15T04:34:47.515Z,1002.75
2018-06-15T04:35:47.496Z,1002.77
2018-06-15T04:36:47.479Z,1002.81
2018-06-15T04:37:47.464Z,1002.80
2018-06-15T04:38:47.447Z,1002.82
2018-06-15T04:39:47.426Z,1002.81
2018-06-15T04:40:47.410Z,1002.81
2018-06-15T04:41:47.391Z,1002.79
2018-06-15T04:42:47.376Z,1002.80
2018-06-15T04:43:47.420Z,1002.75
2018-06-15T04:44:47.340Z,1002.77
2018-06-15T04:45:47.323Z,1002.76
2018-06-15T04:46:47.305Z,1002.76
2018-06-15T04:47:47.288Z,1002.78
2018-06-15T04:48:47.270Z,1002.80
2018-06-15T04:49:47.254Z,1002.84
2018-06-15T04:50:47.237Z,1002.88
2018-06-15T04:51:47.226Z,1002.91
2018-06-15T04:52:47.204Z,1002.89
2018-06-15T04:53:47.186Z,1002.86
2018-06-15T04:54:47.166Z,1002.84
2018-06-15T04:55:47.150Z,1002.78
2018-06-15T04:56:47.134Z,1002.80
2018-06-15T04:57:47.118Z,1002.74
2018-06-15T04:58:47.098Z,1002.71
2018-06-15T04:59:47.082Z,1002.68
2018-06-15T05:00:47.069Z,1002.72
2018-06-15T05:01:47.048Z,1002.75
2018-06-15T05:02:47.030Z,1002.76
2018-06-15T05:03:47.014Z,1002.75
2018-06-15T05:04:46.997Z,1002.78
2018-06-15T05:05:46.982Z,1002.78
2018-06-15T05:06:46.967Z,1002.77
2018-06-15T05:07:46.946Z,1002.78
2018-06-15T05:08:46.930Z,1002.77
2018-06-15T05:09:46.914Z,1002.77
2018-06-15T05:10:46.896Z,1002.75
2018-06-15T05:11:46.879Z,1002.78
2018-06-15T05:12:46.864Z,1002.78
2018-06-15T05:13:46.845Z,1002.77
2018-06-15T05:14:46.829Z,1002.79
2018-06-15T05:15:46.812Z,1002.72
2018-06-15T05:16:46.796Z,1002.74
2018-06-15T05:17:46.784Z,1002.73
2018-06-15T05:18:46.765Z,1002.68
2018-06-15T05:19:46.748Z,1002.67
2018-06-15T05:20:46.730Z,1002.66
2018-06-15T05:21:46.714Z,1002.68
2018-06-15T05:22:46.696Z,1002.73
2018-06-15T05:23:46.680Z,1002.73
2018-06-15T05:24:46.664Z,1002.72
2018-06-15T05:25:46.724Z,1002.77
2018-06-15T05:26:46.630Z,1002.75
2018-06-15T05:27:46.616Z,1002.78
2018-06-15T05:28:46.601Z,1002.79
2018-06-15T05:29:46.585Z,1002.80
2018-06-15T05:30:46.568Z,1002.84
2018-06-15T05:31:46.549Z,1002.87
2018-06-15T05:32:46.535Z,1002.90
2018-06-15T05:33:46.518Z,1002.93
2018-06-15T05:34:46.502Z,1002.92
2018-06-15T05:35:46.486Z,1002.90
2018-06-15T05:36:46.471Z,1002.92
2018-06-15T05:37:46.453Z,1002.92
2018-06-15T05:38:46.435Z,1002.91
2018-06-15T05:39:46.819Z,1002.90
2018-06-15T05:40:46.547Z,1002.88
2018-06-15T05:41:46.389Z,1002.92
2018-06-15T05:42:46.374Z,1002.94
2018-06-15T05:43:46.358Z,1002.93
2018-06-15T05:44:46.343Z,1002.94
2018-06-15T05:45:46.326Z,1002.96
2018-06-15T05:46:46.307Z,1002.95
2018-06-15T05:47:46.293Z,1002.99
2018-06-15T05:48:46.276Z,1003.00
2018-06-15T05:49:46.261Z,1002.99
2018-06-15T05:50:46.243Z,1002.99
2018-06-15T05:51:46.229Z,1002.98
2018-06-15T05:52:46.213Z,1002.94
2018-06-15T05:53:46.198Z,1002.96
2018-06-15T05:54:46.181Z,1002.94
2018-06-15T05:55:46.216Z,1002.95
2018-06-15T05:56:46.149Z,1002.97
2018-06-15T05:57:46.131Z,1003.00
2018-06-15T05:58:46.116Z,1003.02
2018-06-15T05:59:46.101Z,1003.01
2018-06-15T06:00:46.082Z,1003.00
2018-06-15T06:01:46.071Z,1003.05
2018-06-15T06:02:46.053Z,1003.07
2018-06-15T06:03:46.068Z,1003.04
2018-06-15T06:04:46.024Z,1003.09
2018-06-15T06:05:46.007Z,1003.06
2018-06-15T06:06:45.989Z,1003.06
2018-06-15T06:07:45.979Z,1003.10
2018-06-15T06:08:45.959Z,1003.09
2018-06-15T06:09:45.942Z,1003.06
2018-06-15T06:10:45.927Z,1003.02
2018-06-15T06:11:45.910Z,1003.07
2018-06-15T06:12:45.897Z,1003.05
2018-06-15T06:13:45.880Z,1003.06
2018-06-15T06:14:45.864Z,1003.07
2018-06-15T06:15:45.850Z,1003.11
2018-06-15T06:16:45.836Z,1003.17
2018-06-15T06:17:45.819Z,1003.17
2018-06-15T06:18:45.803Z,1003.20
2018-06-15T06:19:45.838Z,1003.26
2018-06-15T06:20:45.773Z,1003.26
2018-06-15T06:21:45.757Z,1003.25
2018-06-15T06:22:45.742Z,1003.26
2018-06-15T06:23:45.728Z,1003.26
2018-06-15T06:24:45.711Z,1003.27
2018-06-15T06:25:45.699Z,1003.27
2018-06-15T06:26:45.691Z,1003.24
2018-06-15T06:27:45.662Z,1003.27
2018-06-15T06:28:45.651Z,1003.26
2018-06-15T06:29:45.636Z,1003.29
2018-06-15T06:30:45.621Z,1003.30
2018-06-15T06:31:45.606Z,1003.29
2018-06-15T06:32:45.591Z,1003.31
2018-06-15T06:33:45.575Z,1003.32
2018-06-15T06:34:45.562Z,1003.33
2018-06-15T06:35:45.546Z,1003.32
2018-06-15T06:36:45.532Z,1003.31
2018-06-15T06:37:45.520Z,1003.32
2018-06-15T06:38:45.501Z,1003.38
2018-06-15T06:39:45.487Z,1003.36
2018-06-15T06:40:45.468Z,1003.38
2018-06-15T06:41:45.456Z,1003.39
2018-06-15T06:42:45.440Z,1003.41
2018-06-15T06:43:45.436Z,1003.42
2018-06-15T06:44:45.412Z,1003.42
2018-06-15T06:45:45.397Z,1003.44
2018-06-15T06:46:45.381Z,1003.44
2018-06-15T06:47:45.368Z,1003.43
2018-06-15T06:48:45.352Z,1003.44
2018-06-15T06:49:45.338Z,1003.51
2018-06-15T06:50:45.324Z,1003.51
2018-06-15T06:51:45.308Z,1003.48
2018-06-15T06:52:45.293Z,1003.46
2018-06-15T06:53:45.279Z,1003.50
2018-06-15T06:54:45.265Z,1003.53
2018-06-15T06:55:45.251Z,1003.52
2018-06-15T06:56:45.236Z,1003.49
2018-06-15T06:57:45.224Z,1003.47
2018-06-15T06:58:45.208Z,1003.50
2018-06-15T06:59:45.195Z,1003.53
2018-06-15T07:00:45.181Z,1003.53
2018-06-15T07:01:45.166Z,1003.55
2018-06-15T07:02:45.151Z,1003.54
2018-06-15T07:03:45.138Z,1003.51
2018-06-15T07:04:45.153Z,1003.52
2018-06-15T07:05:45.118Z,1003.48
2018-06-15T07:06:45.100Z,1003.51
2018-06-15T07:07:45.088Z,1003.50
2018-06-15T07:08:45.071Z,1003.61
2018-06-15T07:09:45.058Z,1003.55
2018-06-15T07:10:45.045Z,1003.48
2018-06-15T07:11:45.042Z,1003.48
2018-06-15T07:12:45.018Z,1003.47
2018-06-15T07:13:45.007Z,1003.47
2018-06-15T07:14:44.993Z,1003.46
2018-06-15T07:15:44.979Z,1003.55
2018-06-15T07:16:44.967Z,1003.55
2018-06-15T07:17:44.956Z,1003.56
2018-06-15T07:18:44.943Z,1003.51
2018-06-15T07:19:44.928Z,1003.54
2018-06-15T07:20:44.916Z,1003.53
2018-06-15T07:21:44.903Z,1003.52
2018-06-15T07:22:44.892Z,1003.49
2018-06-15T07:23:44.880Z,1003.52
2018-06-15T07:24:44.873Z,1003.52
2018-06-15T07:25:44.856Z,1003.48
2018-06-15T07:26:44.845Z,1003.47
2018-06-15T07:27:44.831Z,1003.48
2018-06-15T07:28:44.820Z,1003.49
2018-06-15T07:29:44.808Z,1003.52
2018-06-15T07:30:44.795Z,1003.49
2018-06-15T07:31:44.782Z,1003.52
2018-06-15T07:32:44.771Z,1003.55
2018-06-15T07:33:44.768Z,1003.56
2018-06-15T07:34:44.745Z,1003.53
2018-06-15T07:35:44.733Z,1003.54
2018-06-15T07:36:44.722Z,1003.51
2018-06-15T07:37:44.709Z,1003.49
2018-06-15T07:38:44.698Z,1003.48
2018-06-15T07:39:44.685Z,1003.47
2018-06-15T07:40:44.677Z,1003.52
2018-06-15T07:41:44.661Z,1003.49
2018-06-15T07:42:44.648Z,1003.48
2018-06-15T07:43:44.635Z,1003.47
2018-06-15T07:44:44.621Z,1003.48
2018-06-15T07:45:44.611Z,1003.50
2018-06-15T07:46:44.596Z,1003.47
2018-06-15T07:47:44.585Z,1003.45
2018-06-15T07:48:44.571Z,1003.44
2018-06-15T07:49:44.562Z,1003.45
2018-06-15T07:50:44.547Z,1003.44
2018-06-15T07:51:44.533Z,1003.43
2018-06-15T07:52:44.521Z,1003.48
2018-06-15T07:53:44.507Z,1003.42
2018-06-15T07:54:44.492Z,1003.43
2018-06-15T07:55:44.483Z,1003.44
2018-06-15T07:56:44.469Z,1003.42
2018-06-15T07:57:44.466Z,1003.43
2018-06-15T07:58:44.447Z,1003.42
2018-06-15T07:59:44.496Z,1003.44
2018-06-15T08:00:44.413Z,1003.45
2018-06-15T08:01:44.402Z,1003.49
2018-06-15T08:02:44.389Z,1003.44
2018-06-15T08:03:44.372Z,1003.49
2018-06-15T08:04:44.360Z,1003.44
2018-06-15T08:05:44.352Z,1003.44
2018-06-15T08:06:44.332Z,1003.46
2018-06-15T08:07:44.319Z,1003.48
2018-06-15T08:08:44.305Z,1003.49
2018-06-15T08:09:44.294Z,1003.51
2018-06-15T08:10:44.277Z,1003.53
2018-06-15T08:11:44.266Z,1003.52
2018-06-15T08:12:44.252Z,1003.49
2018-06-15T08:13:44.239Z,1003.47
2018-06-15T08:14:44.223Z,1003.46
2018-06-15T08:15:44.210Z,1003.45
2018-06-15T08:16:44.197Z,1003.42
2018-06-15T08:17:44.186Z,1003.41
2018-06-15T08:18:44.170Z,1003.40
2018-06-15T08:19:44.155Z,1003.40
2018-06-15T08:20:44.144Z,1003.41
2018-06-15T08:21:44.127Z,1003.42
2018-06-15T08:22:44.113Z,1003.40
2018-06-15T08:23:44.100Z,1003.42
2018-06-15T08:24:44.086Z,1003.45
2018-06-15T08:25:44.075Z,1003.44
2018-06-15T08:26:44.062Z,1003.46
2018-06-15T08:27:44.086Z,1003.52
2018-06-15T08:28:44.032Z,1003.48
2018-06-15T08:29:44.021Z,1003.50
2018-06-15T08:30:44.003Z,1003.45
2018-06-15T08:31:43.991Z,1003.52
2018-06-15T08:32:43.979Z,1003.47
2018-06-15T08:33:43.965Z,1003.49
2018-06-15T08:34:43.952Z,1003.52
2018-06-15T08:35:43.939Z,1003.45
2018-06-15T08:36:43.926Z,1003.43
2018-06-15T08:37:43.916Z,1003.44
2018-06-15T08:38:43.897Z,1003.45
2018-06-15T08:39:43.885Z,1003.46
2018-06-15T08:40:43.871Z,1003.47
2018-06-15T08:41:43.862Z,1003.45
2018-06-15T08:42:43.846Z,1003.45
2018-06-15T08:43:43.833Z,1003.44
2018-06-15T08:44:43.820Z,1003.48
2018-06-15T08:45:43.807Z,1003.44
2018-06-15T08:46:43.794Z,1003.43
2018-06-15T08:47:43.780Z,1003.41
2018-06-15T08:48:43.768Z,1003.44
2018-06-15T08:49:43.756Z,1003.43
2018-06-15T08:50:43.744Z,1003.43
2018-06-15T08:51:43.730Z,1003.42
2018-06-15T08:52:43.747Z,1003.43
2018-06-15T08:53:43.707Z,1003.45
2018-06-15T08:54:43.691Z,1003.47
2018-06-15T08:55:43.680Z,1003.45
2018-06-15T08:56:43.669Z,1003.44
2018-06-15T08:57:43.658Z,1003.38
2018-06-15T08:58:43.646Z,1003.44
2018-06-15T08:59:43.631Z,1003.46
2018-06-15T09:00:43.622Z,1003.49
2018-06-15T09:01:43.614Z,1003.42
2018-06-15T09:02:43.595Z,1003.45
2018-06-15T09:03:43.586Z,1003.45
2018-06-15T09:04:43.572Z,1003.41
2018-06-15T09:05:43.561Z,1003.45
2018-06-15T09:06:43.548Z,1003.43
2018-06-15T09:07:43.538Z,1003.39
2018-06-15T09:08:43.526Z,1003.33
2018-06-15T09:09:43.514Z,1003.42
2018-06-15T09:10:43.500Z,1003.47
2018-06-15T09:11:43.489Z,1003.42
2018-06-15T09:12:43.479Z,1003.46
2018-06-15T09:13:43.467Z,1003.44
2018-06-15T09:14:43.453Z,1003.44
2018-06-15T09:15:43.466Z,1003.38
2018-06-15T09:16:43.430Z,1003.38
2018-06-15T09:17:43.419Z,1003.42
2018-06-15T09:18:43.407Z,1003.40
2018-06-15T09:19:43.393Z,1003.44
2018-06-15T09:20:43.386Z,1003.47
2018-06-15T09:21:43.371Z,1003.44
2018-06-15T09:22:43.360Z,1003.45
2018-06-15T09:23:43.349Z,1003.46
2018-06-15T09:24:43.336Z,1003.46
2018-06-15T09:25:43.324Z,1003.40
2018-06-15T09:26:43.313Z,1003.48
2018-06-15T09:27:43.301Z,1003.47
2018-06-15T09:28:43.291Z,1003.46
2018-06-15T09:29:43.282Z,1003.42
2018-06-15T09:30:43.284Z,1003.38
2018-06-15T09:31:43.256Z,1003.41
2018-06-15T09:32:43.275Z,1003.41
2018-06-15T09:33:43.233Z,1003.38
2018-06-15T09:34:43.225Z,1003.38
2018-06-15T09:35:43.209Z,1003.34
2018-06-15T09:36:43.198Z,1003.37
2018-06-15T09:37:43.187Z,1003.32
2018-06-15T09:38:43.176Z,1003.36
2018-06-15T09:39:43.173Z,1003.32
2018-06-15T09:40:43.152Z,1003.34
2018-06-15T09:41:43.142Z,1003.40
2018-06-15T09:42:43.130Z,1003.37
2018-06-15T09:43:43.116Z,1003.39
2018-06-15T09:44:43.108Z,1003.38
2018-06-15T09:45:43.095Z,1003.40
2018-06-15T09:46:43.080Z,1003.35
2018-06-15T09:47:43.067Z,1003.39
2018-06-15T09:48:43.056Z,1003.39
2018-06-15T09:49:43.051Z,1003.39
2018-06-15T09:50:43.035Z,1003.45
2018-06-15T09:51:43.022Z,1003.38
2018-06-15T09:52:43.010Z,1003.37
2018-06-15T09:53:43.007Z,1003.41
2018-06-15T09:54:42.987Z,1003.38
2018-06-15T09:55:42.976Z,1003.39
2018-06-15T09:56:42.964Z,1003.40
2018-06-15T09:57:42.952Z,1003.35
2018-06-15T09:58:42.941Z,1003.35
2018-06-15T09:59:42.929Z,1003.37
2018-06-15T10:00:42.918Z,1003.35
2018-06-15T10:01:42.907Z,1003.31
2018-06-15T10:02:42.895Z,1003.35
2018-06-15T10:03:42.881Z,1003.39
2018-06-15T10:04:42.872Z,1003.41
2018-06-15T10:05:42.860Z,1003.38
2018-06-15T10:06:42.848Z,1003.40
2018-06-15T10:07:42.836Z,1003.41
2018-06-15T10:08:42.822Z,1003.44
2018-06-15T10:09:42.816Z,1003.42
2018-06-15T10:10:42.804Z,1003.42
2018-06-15T10:11:42.798Z,1003.43
2018-06-15T10:12:42.782Z,1003.38
2018-06-15T10:13:42.773Z,1003.40
2018-06-15T10:14:42.759Z,1003.43
2018-06-15T10:15:42.749Z,1003.43
2018-06-15T10:16:42.778Z,1003.41
2018-06-15T10:17:42.735Z,1003.42
2018-06-15T10:18:42.717Z,1003.44
2018-06-15T10:19:42.705Z,1003.44
2018-06-15T10:20:42.696Z,1003.44
2018-06-15T10:21:42.686Z,1003.45
2018-06-15T10:22:42.673Z,1003.44
2018-06-15T10:23:42.663Z,1003.48
2018-06-15T10:24:42.653Z,1003.46
2018-06-15T10:25:42.643Z,1003.47
2018-06-15T10:26:42.631Z,1003.50
2018-06-15T10:27:42.624Z,1003.46
2018-06-15T10:28:42.611Z,1003.43
2018-06-15T10:29:42.602Z,1003.40
2018-06-15T10:30:42.590Z,1003.44
2018-06-15T10:31:42.578Z,1003.42
2018-06-15T10:32:42.573Z,1003.42
2018-06-15T10:33:42.559Z,1003.43
2018-06-15T10:34:42.547Z,1003.39
2018-06-15T10:35:42.542Z,1003.42
2018-06-15T10:36:42.560Z,1003.41
2018-06-15T10:37:42.514Z,1003.41
2018-06-15T10:38:42.505Z,1003.43
2018-06-15T10:39:42.493Z,1003.44
2018-06-15T10:40:42.486Z,1003.41
2018-06-15T10:41:42.474Z,1003.41
2018-06-15T10:42:42.463Z,1003.40
2018-06-15T10:43:42.451Z,1003.41
2018-06-15T10:44:42.442Z,1003.37
2018-06-15T10:45:42.497Z,1003.40
2018-06-15T10:46:42.432Z,1003.39
2018-06-15T10:47:42.411Z,1003.42
2018-06-15T10:48:42.402Z,1003.37
2018-06-15T10:49:42.391Z,1003.37
2018-06-15T10:50:42.381Z,1003.37
2018-06-15T10:51:42.370Z,1003.36
2018-06-15T10:52:42.362Z,1003.35
2018-06-15T10:53:42.351Z,1003.37
2018-06-15T10:54:42.339Z,1003.38
2018-06-15T10:55:42.334Z,1003.33
2018-06-15T10:56:42.321Z,1003.39
2018-06-15T10:57:42.312Z,1003.38
2018-06-15T10:58:42.300Z,1003.38
2018-06-15T10:59:42.289Z,1003.39
2018-06-15T11:00:42.289Z,1003.35
2018-06-15T11:01:42.272Z,1003.35
2018-06-15T11:02:42.263Z,1003.33
2018-06-15T11:03:42.252Z,1003.37
2018-06-15T11:04:42.242Z,1003.36
2018-06-15T11:05:42.235Z,1003.36
2018-06-15T11:06:42.226Z,1003.38
2018-06-15T11:07:42.221Z,1003.35
2018-06-15T11:08:42.206Z,1003.33
2018-06-15T11:09:42.196Z,1003.32
2018-06-15T11:10:42.187Z,1003.36
2018-06-15T11:11:42.178Z,1003.32
2018-06-15T11:12:42.171Z,1003.35
2018-06-15T11:13:42.159Z,1003.30
2018-06-15T11:14:42.159Z,1003.34
2018-06-15T11:15:42.140Z,1003.28
2018-06-15T11:16:42.133Z,1003.30
2018-06-15T11:17:42.124Z,1003.27
2018-06-15T11:18:42.110Z,1003.25
2018-06-15T11:19:42.105Z,1003.28
2018-06-15T11:20:42.098Z,1003.24
2018-06-15T11:21:42.090Z,1003.24
2018-06-15T11:22:42.079Z,1003.20
2018-06-15T11:23:42.069Z,1003.18
2018-06-15T11:24:42.062Z,1003.23
2018-06-15T11:25:42.050Z,1003.21
2018-06-15T11:26:42.043Z,1003.16
2018-06-15T11:27:42.034Z,1003.14
2018-06-15T11:28:42.026Z,1003.18
2018-06-15T11:29:42.015Z,1003.17
2018-06-15T11:30:42.008Z,1003.17
2018-06-15T11:31:41.998Z,1003.18
2018-06-15T11:32:41.993Z,1003.16
2018-06-15T11:33:41.981Z,1003.20
2018-06-15T11:34:41.971Z,1003.14
2018-06-15T11:35:41.964Z,1003.14
2018-06-15T11:36:41.955Z,1003.15
2018-06-15T11:37:41.944Z,1003.15
2018-06-15T11:38:41.936Z,1003.11
2018-06-15T11:39:41.924Z,1003.18
2018-06-15T11:40:41.916Z,1003.13
2018-06-15T11:41:41.905Z,1003.10
2018-06-15T11:42:41.895Z,1003.11
2018-06-15T11:43:41.887Z,1003.08
2018-06-15T11:44:41.879Z,1003.11
2018-06-15T11:45:41.871Z,1003.12
2018-06-15T11:46:41.859Z,1003.05
2018-06-15T11:47:41.916Z,1003.10
2018-06-15T11:48:41.890Z,1003.09
2018-06-15T11:49:41.929Z,1003.10
2018-06-15T11:50:41.854Z,1003.08
2018-06-15T11:51:41.809Z,1003.09
2018-06-15T11:52:41.805Z,1003.07
2018-06-15T11:53:41.797Z,1003.06
2018-06-15T11:54:41.782Z,1003.07
2018-06-15T11:55:41.776Z,1003.03
2018-06-15T11:56:41.758Z,1002.95
2018-06-15T11:57:41.776Z,1002.97
2018-06-15T11:58:41.751Z,1002.98
2018-06-15T11:59:41.747Z,1002.93
2018-06-15T12:00:41.731Z,1002.94
2018-06-15T12:01:41.732Z,1002.94
2018-06-15T12:02:41.715Z,1002.92
2018-06-15T12:03:41.704Z,1002.90
2018-06-15T12:04:41.698Z,1002.91
2018-06-15T12:05:41.683Z,1002.92